Time;durP1;ratioP1;P1;durP2;ratioP2;P2;SDS_P1;SDS_P2;PMS_P1;PMS_P2;Temp;Humidity;BMP_temperature;BMP_pressure;BME280_temperature;BME280_humidity;BME280_pressure;Samples;Min_cycle;Max_cycle;Signal;HPM_P1;HPM_P2
2021/12/16 00:02:51;;;;;;;;;31.75;24.00;;;;;9.64;87.00;101577.75;5048551;28;8984;-81
2021/12/16 00:05:37;;;;;;;;;21.75;21.00;;;;;9.61;87.38;101581.44;5049342;28;9201;-81
2021/12/16 00:08:14;;;;;;;;;18.25;16.25;;;;;9.61;87.54;101578.78;5047703;28;8868;-81
2021/12/16 00:10:50;;;;;;;;;26.25;21.75;;;;;9.60;87.04;101574.38;5049427;28;8872;-81
2021/12/16 00:30:08;;;;;;;;;23.00;20.75;;;;;9.57;87.69;101579.84;5049331;28;9179;-81
2021/12/16 00:32:47;;;;;;;;;20.25;19.25;;;;;9.57;87.17;101585.16;5048082;28;8842;-81
2021/12/16 00:35:15;;;;;;;;;20.50;16.75;;;;;9.57;87.38;101590.47;5047631;28;8847;-81
2021/12/16 00:37:43;;;;;;;;;9.00;6.25;;;;;9.58;87.05;101592.19;5049342;28;8838;-81
2021/12/16 00:40:11;;;;;;;;;26.75;23.25;;;;;9.59;87.40;101593.06;5048436;28;8846;-81
2021/12/16 00:42:46;;;;;;;;;15.50;12.00;;;;;9.59;87.38;101591.28;5050494;28;8870;-81
2021/12/16 00:48:19;;;;;;;;;24.50;23.00;;;;;9.61;87.33;101585.88;5046827;28;8940;-81
2021/12/16 00:56:17;;;;;;;;;17.50;16.75;;;;;9.58;86.98;101586.88;5049109;28;8857;-81
2021/12/16 00:58:50;;;;;;;;;15.50;12.50;;;;;9.58;87.35;101591.34;5050745;28;8846;-81
2021/12/16 01:01:29;;;;;;;;;25.00;21.75;;;;;9.57;87.39;101593.13;5050113;28;8858;-81
2021/12/16 01:04:16;;;;;;;;;21.75;21.00;;;;;9.58;86.59;101596.69;5050002;28;8850;-81
2021/12/16 01:06:59;;;;;;;;;21.00;17.75;;;;;9.59;87.40;101599.28;5049220;28;8857;-81
2021/12/16 01:10:11;;;;;;;;;17.25;14.50;;;;;9.58;87.27;101602.84;5047762;28;8845;-81
2021/12/16 01:34:34;;;;;;;;;26.00;24.25;;;;;9.57;87.20;101609.09;5028693;28;8881;-81
2021/12/16 01:45:24;;;;;;;;;19.00;16.50;;;;;9.57;86.92;101611.75;5046195;28;8881;-81
2021/12/16 01:50:52;;;;;;;;;21.75;18.25;;;;;9.53;86.96;101610.19;5041479;28;8870;-81
2021/12/16 01:53:38;;;;;;;;;24.50;22.25;;;;;9.53;87.46;101620.84;5048079;28;9116;-81
2021/12/16 01:56:16;;;;;;;;;26.50;24.25;;;;;9.55;87.36;101618.97;5049796;28;8870;-81
2021/12/16 01:58:45;;;;;;;;;22.75;21.50;;;;;9.55;87.16;101613.63;5048895;28;8886;-81
2021/12/16 02:01:17;;;;;;;;;20.75;18.50;;;;;9.56;87.11;101615.34;5048220;28;8838;-81
2021/12/16 02:03:47;;;;;;;;;14.75;13.50;;;;;9.56;86.86;101610.03;5048196;28;8839;-81
2021/12/16 02:06:37;;;;;;;;;21.50;19.50;;;;;9.57;87.27;101614.41;5046293;28;8839;-81
2021/12/16 02:09:05;;;;;;;;;13.50;11.00;;;;;9.57;87.26;101606.44;5044427;28;8843;-81
2021/12/16 02:11:48;;;;;;;;;9.75;9.25;;;;;9.56;87.30;101612.69;5046906;28;8850;-81
2021/12/16 02:28:17;;;;;;;;;27.25;21.50;;;;;9.52;86.71;101619.13;5049060;28;8842;-81
2021/12/16 02:36:30;;;;;;;;;37.40;34.40;;;;;9.49;87.31;101621.06;5134141;27;13399;-58
2021/12/16 02:38:58;;;;;;;;;24.50;21.50;;;;;9.54;87.31;101622.56;5127705;27;8847;-57
2021/12/16 02:41:25;;;;;;;;;25.00;24.50;;;;;9.59;86.79;101617.88;5128186;27;8829;-57
2021/12/16 02:44:17;;;;;;;;;22.75;18.00;;;;;9.59;86.85;101625.88;5127419;27;8841;-57
2021/12/16 02:49:30;;;;;;;;;16.25;15.25;;;;;9.48;86.58;101620.19;5108241;28;9123;-57
2021/12/16 02:51:58;;;;;;;;;24.25;20.75;;;;;9.41;87.09;101621.41;5109240;28;8832;-57
2021/12/16 02:54:25;;;;;;;;;11.00;9.50;;;;;9.31;87.24;101625.47;5107932;28;8872;-57
2021/12/16 02:56:53;;;;;;;;;24.25;21.50;;;;;9.20;87.46;101622.44;5118242;27;8834;-57
2021/12/16 02:59:26;;;;;;;;;19.75;19.00;;;;;9.14;87.54;101632.50;5128619;27;8851;-57
2021/12/16 03:01:54;;;;;;;;;18.75;16.00;;;;;9.13;87.57;101636.94;5127504;27;8879;-58
2021/12/16 03:04:23;;;;;;;;;28.25;25.00;;;;;9.15;88.02;101637.75;5127119;27;8864;-58
2021/12/16 03:06:52;;;;;;;;;23.50;19.00;;;;;9.18;87.63;101637.59;5116213;28;9626;-58
2021/12/16 03:09:25;;;;;;;;;14.00;12.50;;;;;9.21;87.56;101645.44;5106879;28;8890;-57
2021/12/16 03:12:26;;;;;;;;;22.25;20.75;;;;;9.23;87.70;101635.59;5107854;28;8832;-58
2021/12/16 03:14:47;;;;;;;;;25.00;20.25;;;;;9.25;87.59;101625.75;5107167;28;8888;-58
2021/12/16 03:17:21;;;;;;;;;24.50;23.00;;;;;9.28;87.33;101630.91;5120189;27;8863;-57
2021/12/16 03:20:01;;;;;;;;;29.00;26.75;;;;;9.29;87.64;101632.66;5128036;27;8845;-57
2021/12/16 03:22:51;;;;;;;;;29.00;26.00;;;;;9.31;87.57;101636.09;5128046;27;8853;-57
2021/12/16 03:25:25;;;;;;;;;28.25;24.00;;;;;9.33;87.20;101628.06;5127664;27;8870;-57
2021/12/16 03:28:24;;;;;;;;;24.50;20.25;;;;;9.35;87.43;101635.00;5106998;28;8958;-57
2021/12/16 03:31:04;;;;;;;;;21.25;17.00;;;;;9.38;87.49;101641.97;5106555;28;8824;-57
2021/12/16 03:36:31;;;;;;;;;18.75;17.75;;;;;9.40;87.37;101640.09;5092906;27;8917;-57
2021/12/16 03:38:59;;;;;;;;;30.75;25.50;;;;;9.42;87.09;101641.75;5127100;27;9838;-57
2021/12/16 03:41:27;;;;;;;;;24.50;18.75;;;;;9.42;87.39;101644.41;5127982;27;8829;-57
2021/12/16 03:43:57;;;;;;;;;26.00;21.25;;;;;9.43;87.49;101648.78;5126751;27;8913;-57
2021/12/16 03:46:28;;;;;;;;;17.00;14.25;;;;;9.43;87.37;101645.28;5115517;27;8832;-58
2021/12/16 03:48:58;;;;;;;;;21.25;19.50;;;;;9.44;87.19;101652.31;5093531;28;9501;-57
2021/12/16 03:51:25;;;;;;;;;25.50;22.75;;;;;9.44;87.16;101661.16;5093155;28;8973;-58
2021/12/16 03:53:53;;;;;;;;;22.50;21.50;;;;;9.43;87.33;101664.72;5092241;28;8831;-57
2021/12/16 03:56:21;;;;;;;;;25.50;24.75;;;;;9.39;87.47;101659.63;5097832;28;8849;-57
2021/12/16 03:58:49;;;;;;;;;24.25;19.25;;;;;9.35;87.45;101661.56;5112161;28;8857;-58
2021/12/16 04:01:17;;;;;;;;;19.25;16.50;;;;;9.28;87.47;101657.47;5112762;28;8841;-57
2021/12/16 04:03:45;;;;;;;;;22.25;22.25;;;;;9.20;87.64;101651.66;5113046;28;8894;-57
2021/12/16 04:06:12;;;;;;;;;28.25;24.25;;;;;9.13;87.51;101650.22;5107174;28;8870;-57
2021/12/16 04:08:40;;;;;;;;;24.50;23.50;;;;;9.08;87.86;101649.59;5091187;28;8859;-58
2021/12/16 04:11:10;;;;;;;;;24.75;19.00;;;;;9.04;87.63;101647.16;5091077;28;9018;-57
2021/12/16 04:13:52;;;;;;;;;23.75;21.50;;;;;9.00;87.94;101661.50;5091508;28;8847;-57
2021/12/16 04:16:20;;;;;;;;;15.50;7.00;;;;;8.96;87.88;101657.28;5096541;28;8849;-57
2021/12/16 04:18:47;;;;;;;;;24.20;21.40;;;;;8.93;87.99;101658.28;5112012;28;8857;-57
2021/12/16 04:21:19;;;;;;;;;17.75;14.50;;;;;8.88;88.16;101652.28;5112057;28;9499;-57
2021/12/16 04:23:46;;;;;;;;;22.25;19.75;;;;;8.87;87.70;101658.53;5112796;28;8852;-57
2021/12/16 04:26:14;;;;;;;;;25.25;22.00;;;;;8.86;88.15;101663.91;5108329;28;8816;-57
2021/12/16 04:28:42;;;;;;;;;28.25;23.00;;;;;8.85;88.51;101655.09;5091302;28;8861;-57
2021/12/16 04:31:10;;;;;;;;;19.75;17.25;;;;;8.86;88.37;101670.09;5092292;28;8860;-57
2021/12/16 04:33:39;;;;;;;;;22.00;21.00;;;;;8.88;88.47;101667.38;5090903;28;8928;-57
2021/12/16 04:36:08;;;;;;;;;29.20;25.20;;;;;8.88;88.13;101667.38;5094910;28;8854;-57
2021/12/16 04:38:36;;;;;;;;;24.80;22.80;;;;;8.88;87.93;101668.22;5111823;28;8950;-57
2021/12/16 04:41:03;;;;;;;;;27.80;23.00;;;;;8.89;87.90;101669.94;5111522;28;8832;-57
2021/12/16 04:43:39;;;;;;;;;17.25;13.50;;;;;8.87;88.26;101665.63;5111965;28;8857;-57
2021/12/16 04:46:06;;;;;;;;;23.25;20.25;;;;;8.85;88.21;101663.06;5108239;28;9478;-57
2021/12/16 04:48:34;;;;;;;;;29.80;25.60;;;;;8.83;88.28;101670.22;5089901;28;8837;-57
2021/12/16 04:51:02;;;;;;;;;22.25;19.50;;;;;8.80;88.21;101665.06;5093089;28;8854;-57
2021/12/16 04:53:30;;;;;;;;;24.00;22.75;;;;;8.76;88.05;101674.09;5090290;28;8862;-57
2021/12/16 04:55:57;;;;;;;;;17.50;15.25;;;;;8.73;88.27;101678.69;5092530;28;9484;-57
2021/12/16 04:58:25;;;;;;;;;26.50;16.25;;;;;8.69;88.04;101672.66;5109910;28;9110;-57
2021/12/16 05:00:53;;;;;;;;;20.60;18.80;;;;;8.69;88.48;101677.09;5111870;28;8839;-57
2021/12/16 05:03:21;;;;;;;;;23.60;17.80;;;;;8.67;88.50;101671.00;5112338;28;9572;-57
2021/12/16 05:05:49;;;;;;;;;23.80;20.60;;;;;8.68;88.46;101678.88;5112661;28;8859;-58
2021/12/16 05:08:16;;;;;;;;;15.50;10.75;;;;;8.67;88.44;101671.84;5107281;28;8832;-57
2021/12/16 05:10:44;;;;;;;;;23.50;21.25;;;;;8.64;88.38;101679.94;5104060;28;8824;-57
2021/12/16 05:13:12;;;;;;;;;16.40;13.80;;;;;8.63;88.46;101672.91;5111488;28;8843;-57
2021/12/16 05:15:42;;;;;;;;;22.50;19.50;;;;;8.63;88.75;101672.03;5111226;28;8859;-57
2021/12/16 05:18:09;;;;;;;;;28.75;20.75;;;;;8.61;88.68;101671.25;5109841;28;8855;-57
2021/12/16 05:20:38;;;;;;;;;22.60;21.00;;;;;8.61;88.18;101671.25;5098757;28;8948;-57
2021/12/16 05:26:08;;;;;;;;;6.25;6.25;;;;;8.58;88.36;101674.91;5090735;28;8988;-57
2021/12/16 05:28:35;;;;;;;;;24.00;21.20;;;;;8.59;88.42;101687.25;5090645;28;8857;-57
2021/12/16 05:31:03;;;;;;;;;26.50;24.50;;;;;8.62;88.61;101691.56;5105890;28;8849;-58
2021/12/16 05:33:31;;;;;;;;;28.00;23.40;;;;;8.63;88.29;101698.59;5111184;28;8970;-57
2021/12/16 05:35:59;;;;;;;;;26.00;21.00;;;;;8.66;88.38;101701.13;5109337;28;8887;-58
2021/12/16 05:38:26;;;;;;;;;27.00;25.20;;;;;8.72;88.17;101695.53;5110529;28;8842;-58
2021/12/16 05:40:54;;;;;;;;;27.40;20.00;;;;;8.77;88.12;101704.16;5095675;28;8848;-57
2021/12/16 05:43:24;;;;;;;;;28.20;26.20;;;;;8.81;87.96;101709.28;5090660;28;9515;-57
2021/12/16 05:45:51;;;;;;;;;35.60;30.00;;;;;8.85;87.63;101713.53;5089810;28;8849;-57
2021/12/16 05:48:19;;;;;;;;;23.40;20.20;;;;;8.87;87.60;101706.34;5104280;28;8812;-57
2021/12/16 05:50:47;;;;;;;;;23.80;20.20;;;;;8.88;87.79;101720.50;5109822;28;8832;-57
2021/12/16 05:53:15;;;;;;;;;20.50;18.25;;;;;8.88;87.89;101716.03;5069952;28;8836;-57
2021/12/16 05:55:42;;;;;;;;;26.20;21.20;;;;;8.88;87.91;101715.19;5070202;28;8836;-57
2021/12/16 05:58:15;;;;;;;;;28.00;25.00;;;;;8.89;87.98;101719.56;5069398;28;8832;-57
2021/12/16 06:00:42;;;;;;;;;20.00;17.60;;;;;8.85;87.76;101721.50;5084476;28;8836;-57
2021/12/16 06:03:11;;;;;;;;;22.20;15.80;;;;;8.83;88.00;101723.34;5109455;28;8867;-57
2021/12/16 06:05:38;;;;;;;;;24.20;23.20;;;;;8.81;88.21;101730.53;5108879;28;8895;-57
2021/12/16 06:08:06;;;;;;;;;26.75;24.25;;;;;8.83;88.08;101723.34;5105723;28;8998;-57
2021/12/16 06:13:25;;;;;;;;;25.80;21.40;;;;;8.86;87.63;101739.16;5100888;28;8847;-57
2021/12/16 06:22:20;;;;;;;;;22.80;21.00;;;;;8.87;87.79;101729.38;5106950;28;8844;-57
2021/12/16 06:27:08;;;;;;;;;16.25;14.00;;;;;8.81;87.66;101742.97;5105249;28;8856;-57
2021/12/16 06:29:35;;;;;;;;;27.60;25.00;;;;;8.78;88.52;101743.94;5105412;28;8865;-57
2021/12/16 06:32:03;;;;;;;;;29.80;27.60;;;;;8.75;87.66;101737.91;5102619;28;8862;-57
2021/12/16 06:34:31;;;;;;;;;15.75;14.50;;;;;8.70;88.34;101748.75;5104244;28;8995;-57
2021/12/16 06:36:58;;;;;;;;;20.25;15.75;;;;;8.64;88.46;101738.38;5104225;28;9309;-57
2021/12/16 06:39:26;;;;;;;;;34.80;26.80;;;;;8.60;88.03;101743.88;5106200;28;8958;-56
2021/12/16 06:41:54;;;;;;;;;30.20;24.80;;;;;8.54;88.40;101734.41;5104360;28;8839;-57
2021/12/16 06:44:25;;;;;;;;;25.20;21.80;;;;;8.50;88.48;101746.06;5103390;28;8859;-57
2021/12/16 06:46:58;;;;;;;;;20.20;18.80;;;;;8.46;88.73;101747.13;5103199;28;8894;-57
2021/12/16 06:49:27;;;;;;;;;13.40;13.00;;;;;8.41;88.76;101742.91;5102194;28;8847;-57
2021/12/16 06:51:58;;;;;;;;;23.40;19.80;;;;;8.37;88.39;101751.97;5103473;28;8873;-57
2021/12/16 06:54:29;;;;;;;;;28.00;24.40;;;;;8.35;88.45;101752.00;5103831;28;8851;-57
2021/12/16 06:57:11;;;;;;;;;20.60;17.80;;;;;8.32;88.37;101757.47;5098811;28;8982;-57
2021/12/16 06:59:47;;;;;;;;;28.20;23.40;;;;;8.29;88.88;101752.25;5101821;28;8854;-57
2021/12/16 07:02:50;;;;;;;;;30.80;24.80;;;;;8.26;88.82;101752.41;5099896;28;8875;-57
2021/12/16 07:05:18;;;;;;;;;25.00;21.40;;;;;8.20;88.65;101744.69;5102759;28;8852;-57
2021/12/16 07:07:45;;;;;;;;;24.40;21.80;;;;;8.19;88.75;101744.72;5100856;28;8970;-57
2021/12/16 07:10:13;;;;;;;;;20.20;17.20;;;;;8.20;89.34;101752.63;5098148;28;8832;-57
2021/12/16 07:12:47;;;;;;;;;17.00;15.40;;;;;8.25;89.25;101766.59;5100121;28;8889;-57
2021/12/16 07:15:14;;;;;;;;;23.00;19.40;;;;;8.28;88.88;101781.53;5098627;28;8851;-57
2021/12/16 07:17:42;;;;;;;;;25.60;22.80;;;;;8.32;88.72;101785.78;5101753;28;8864;-57
2021/12/16 07:20:10;;;;;;;;;15.60;12.80;;;;;8.34;88.37;101790.09;5102270;28;9093;-57
2021/12/16 07:22:38;;;;;;;;;26.60;21.40;;;;;8.40;88.75;101791.63;5107428;28;8840;-57
2021/12/16 07:25:06;;;;;;;;;22.60;19.60;;;;;8.44;88.88;101799.41;5104027;28;8851;-57
2021/12/16 07:27:35;;;;;;;;;15.25;15.00;;;;;8.49;88.33;101804.53;5105358;28;9143;-57
2021/12/16 07:30:03;;;;;;;;;23.20;22.00;;;;;8.52;88.41;101805.25;5106791;28;8859;-57
2021/12/16 07:32:31;;;;;;;;;24.40;19.80;;;;;8.55;87.98;101809.59;5106298;28;8862;-57
2021/12/16 07:34:59;;;;;;;;;17.40;15.40;;;;;8.59;88.14;101819.16;5104833;28;8875;-57
2021/12/16 07:37:26;;;;;;;;;33.40;27.00;;;;;8.62;88.14;101819.03;5104875;28;8866;-58
2021/12/16 07:39:54;;;;;;;;;23.40;22.00;;;;;8.67;88.39;101823.19;5104814;28;9109;-57
2021/12/16 07:42:27;;;;;;;;;27.80;25.80;;;;;8.69;88.13;101815.19;5105489;28;8848;-57
2021/12/16 07:44:55;;;;;;;;;16.80;15.20;;;;;8.71;87.81;101810.66;5105121;28;9153;-57
2021/12/16 07:47:23;;;;;;;;;23.75;19.25;;;;;8.72;88.51;101830.97;5103390;28;8856;-57
2021/12/16 07:49:51;;;;;;;;;10.80;9.80;;;;;8.74;88.00;101830.00;5105562;28;8844;-57
2021/12/16 07:52:19;;;;;;;;;22.60;18.60;;;;;8.77;87.61;101835.19;5106138;28;8848;-57
2021/12/16 07:54:47;;;;;;;;;25.00;21.20;;;;;8.80;88.10;101827.09;5102025;28;8847;-57
2021/12/16 07:57:14;;;;;;;;;29.40;24.00;;;;;8.82;87.86;101816.41;5102112;28;9528;-57
2021/12/16 07:59:42;;;;;;;;;21.00;17.25;;;;;8.83;87.83;101829.59;5105203;28;9261;-57
2021/12/16 08:02:11;;;;;;;;;23.50;19.50;;;;;8.87;88.03;101828.56;5103798;28;8836;-57
2021/12/16 08:04:42;;;;;;;;;22.80;21.60;;;;;8.90;87.76;101822.25;5105597;28;8930;-57
2021/12/16 08:07:10;;;;;;;;;16.75;14.25;;;;;8.95;87.45;101829.09;5103309;28;9516;-57
2021/12/16 08:09:40;;;;;;;;;17.50;13.50;;;;;8.99;87.77;101822.72;5104876;28;9502;-57
2021/12/16 08:12:08;;;;;;;;;21.75;19.00;;;;;9.02;87.29;101827.03;5102853;28;8854;-57
2021/12/16 08:14:35;;;;;;;;;21.00;16.00;;;;;9.06;87.47;101825.97;5103558;28;8840;-57
2021/12/16 08:17:03;;;;;;;;;24.75;23.75;;;;;9.10;87.01;101831.09;5100212;28;8843;-57
2021/12/16 08:19:33;;;;;;;;;25.50;23.00;;;;;9.14;87.05;101837.13;5099103;28;8851;-57
2021/12/16 08:22:01;;;;;;;;;12.75;7.50;;;;;9.17;87.03;101842.28;5097030;28;9084;-57
2021/12/16 08:24:29;;;;;;;;;18.25;17.25;;;;;9.23;87.09;101852.66;5101940;28;9627;-57
2021/12/16 08:26:59;;;;;;;;;19.00;17.50;;;;;9.25;87.08;101854.34;5101501;28;8926;-57
2021/12/16 08:29:27;;;;;;;;;21.50;18.75;;;;;9.28;87.02;101859.50;5100596;28;9224;-57
2021/12/16 08:31:56;;;;;;;;;17.75;14.50;;;;;9.31;86.92;101859.38;5098563;28;9126;-57
2021/12/16 08:34:25;;;;;;;;;24.00;20.25;;;;;9.33;86.70;101868.16;5097318;28;9191;-57
2021/12/16 08:36:52;;;;;;;;;24.50;20.00;;;;;9.36;86.57;101877.78;5098569;28;8889;-57
2021/12/16 08:39:22;;;;;;;;;24.00;22.75;;;;;9.37;86.87;101880.41;5102063;28;8912;-57
2021/12/16 08:41:53;;;;;;;;;23.50;19.50;;;;;9.39;86.55;101878.53;5104182;28;8836;-57
2021/12/16 08:44:21;;;;;;;;;18.50;15.50;;;;;9.40;86.80;101879.38;5102119;28;8966;-58
2021/12/16 08:46:49;;;;;;;;;33.00;24.75;;;;;9.42;86.76;101893.50;5103082;28;8854;-57
2021/12/16 08:49:17;;;;;;;;;26.25;24.50;;;;;9.43;86.74;101884.56;5103407;28;8857;-57
2021/12/16 08:51:44;;;;;;;;;25.50;24.00;;;;;9.44;87.02;101903.13;5099816;28;9477;-57
2021/12/16 08:54:12;;;;;;;;;26.50;23.50;;;;;9.44;86.84;101900.47;5102921;28;8836;-57
2021/12/16 08:56:40;;;;;;;;;25.50;21.75;;;;;9.47;86.25;101900.31;5103804;28;8840;-57
2021/12/16 08:59:08;;;;;;;;;20.50;15.50;;;;;9.49;86.80;101901.13;5102380;28;8852;-57
2021/12/16 09:01:36;;;;;;;;;25.00;20.75;;;;;9.51;86.47;101887.75;5101966;28;8847;-57
2021/12/16 09:04:03;;;;;;;;;17.75;17.00;;;;;9.53;86.45;101897.41;5096147;28;9113;-57
2021/12/16 09:06:32;;;;;;;;;27.50;21.75;;;;;9.54;86.86;101901.78;5098543;28;9131;-57
2021/12/16 09:09:00;;;;;;;;;18.50;15.00;;;;;9.54;86.39;101893.81;5098066;28;9489;-57
2021/12/16 09:11:30;;;;;;;;;24.50;22.50;;;;;9.54;86.93;101887.59;5095937;28;8846;-57
2021/12/16 09:13:57;;;;;;;;;23.75;21.75;;;;;9.56;86.67;101901.72;5094087;28;8843;-57
2021/12/16 09:16:25;;;;;;;;;27.50;23.00;;;;;9.55;86.90;101895.53;5097660;28;9132;-57
2021/12/16 09:18:55;;;;;;;;;20.25;17.00;;;;;9.56;86.66;101913.22;5093745;28;8854;-57
2021/12/16 09:21:22;;;;;;;;;25.50;24.25;;;;;9.56;86.49;101899.06;5098637;28;8855;-57
2021/12/16 09:23:50;;;;;;;;;25.00;20.25;;;;;9.55;86.31;101903.50;5098700;28;8858;-57
2021/12/16 09:26:21;;;;;;;;;66.80;53.00;;;;;9.56;86.57;101897.25;5098771;28;9359;-57
2021/12/16 09:28:49;;;;;;;;;34.00;27.80;;;;;9.56;86.96;101888.44;5095624;28;8970;-57
2021/12/16 09:31:17;;;;;;;;;29.00;23.00;;;;;9.55;87.08;101892.88;5098835;28;8851;-57
2021/12/16 09:33:45;;;;;;;;;28.00;20.75;;;;;9.58;86.82;101903.38;5097320;28;8847;-57
2021/12/16 09:36:13;;;;;;;;;24.25;21.25;;;;;9.60;86.91;101898.88;5095961;28;8863;-57
2021/12/16 09:38:40;;;;;;;;;26.75;23.25;;;;;9.61;87.00;101905.91;5099405;28;9168;-57
2021/12/16 09:41:08;;;;;;;;;18.00;13.80;;;;;9.62;86.55;101912.94;5097315;28;8840;-57
2021/12/16 09:43:36;;;;;;;;;37.75;29.50;;;;;9.64;86.37;101912.88;5097586;28;8843;-57
2021/12/16 09:46:03;;;;;;;;;29.25;24.75;;;;;9.65;86.57;101915.47;5094678;28;8856;-57
2021/12/16 09:48:31;;;;;;;;;28.00;24.00;;;;;9.67;86.11;101918.94;5095070;28;8840;-57
2021/12/16 09:51:00;;;;;;;;;26.50;23.25;;;;;9.70;86.54;101921.44;5099118;28;8995;-57
2021/12/16 09:53:28;;;;;;;;;37.00;34.80;;;;;9.74;86.52;101922.19;5101016;28;9089;-57
2021/12/16 09:56:00;;;;;;;;;29.20;23.80;;;;;9.78;86.44;101924.63;5098876;28;8847;-57
2021/12/16 09:58:27;;;;;;;;;42.40;38.40;;;;;9.84;86.52;101915.50;5092438;28;8865;-57
2021/12/16 10:00:55;;;;;;;;;34.40;29.20;;;;;9.92;86.42;101921.34;5092832;28;8886;-57
2021/12/16 10:03:23;;;;;;;;;35.25;32.50;;;;;9.97;86.35;101916.69;5096145;28;8889;-57
2021/12/16 10:05:51;;;;;;;;;25.50;21.75;;;;;10.00;85.77;101916.53;5096177;28;8852;-57
2021/12/16 10:08:18;;;;;;;;;34.25;31.75;;;;;10.04;85.87;101916.38;5092920;28;8873;-57
2021/12/16 10:10:46;;;;;;;;;30.00;28.75;;;;;10.09;85.75;101913.50;5095912;28;8897;-57
2021/12/16 10:13:21;;;;;;;;;28.00;26.00;;;;;10.13;85.85;101913.28;5095993;28;8851;-57
2021/12/16 10:19:02;;;;;;;;;30.50;27.25;;;;;10.14;85.93;101893.72;5034232;28;8904;-57
2021/12/16 10:21:30;;;;;;;;;23.75;22.00;;;;;10.13;86.07;101899.09;5034651;28;8869;-57
2021/12/16 10:23:58;;;;;;;;;28.25;24.25;;;;;10.12;85.80;101903.59;5064161;28;8848;-57
2021/12/16 10:26:26;;;;;;;;;32.75;25.25;;;;;10.11;85.66;101906.31;5088350;28;8839;-57
2021/12/16 10:28:54;;;;;;;;;29.00;27.00;;;;;10.09;85.84;101897.53;5095070;28;9207;-57
2021/12/16 10:31:22;;;;;;;;;26.25;22.25;;;;;10.10;85.89;101902.75;5094166;28;8836;-57
2021/12/16 10:33:49;;;;;;;;;28.50;25.00;;;;;10.13;85.91;101912.41;5092267;28;9156;-57
2021/12/16 10:36:18;;;;;;;;;26.25;24.00;;;;;10.14;86.21;101917.69;5095052;28;8974;-57
2021/12/16 10:38:47;;;;;;;;;27.50;24.00;;;;;10.17;85.80;101927.31;5093706;28;8859;-57
2021/12/16 10:41:17;;;;;;;;;26.00;18.50;;;;;10.14;85.83;101922.13;5097660;28;9561;-57
2021/12/16 10:43:44;;;;;;;;;20.50;16.75;;;;;10.15;86.06;101924.72;5095438;28;9109;-57
2021/12/16 10:46:12;;;;;;;;;32.75;28.25;;;;;10.12;85.84;101927.53;5093630;28;8847;-57
2021/12/16 10:48:40;;;;;;;;;22.00;19.25;;;;;10.11;85.81;101933.78;5096622;28;8928;-57
2021/12/16 10:51:08;;;;;;;;;34.00;29.50;;;;;10.11;86.08;101928.44;5097336;28;8966;-57
2021/12/16 10:53:35;;;;;;;;;33.00;27.75;;;;;10.11;85.84;101925.78;5099238;28;8998;-57
2021/12/16 10:56:03;;;;;;;;;16.50;15.25;;;;;10.11;86.11;101928.44;5095916;28;8840;-57
2021/12/16 10:58:31;;;;;;;;;26.00;24.00;;;;;10.12;86.21;101927.53;5102897;28;8847;-57
2021/12/16 11:00:59;;;;;;;;;28.50;25.00;;;;;10.14;85.99;101931.00;5099330;28;8856;-57
2021/12/16 11:03:27;;;;;;;;;28.75;24.50;;;;;10.16;86.41;101929.09;5101881;28;8840;-57
2021/12/16 11:05:54;;;;;;;;;33.75;28.25;;;;;10.17;86.01;101928.16;5101005;28;8855;-57
2021/12/16 11:08:22;;;;;;;;;24.50;19.50;;;;;10.18;85.81;101929.06;5101512;28;9864;-57
2021/12/16 11:10:50;;;;;;;;;25.25;23.75;;;;;10.18;85.69;101929.91;5100989;28;8862;-57
2021/12/16 11:13:19;;;;;;;;;30.00;25.50;;;;;10.18;85.74;101929.91;5098696;28;9156;-57
2021/12/16 11:15:46;;;;;;;;;30.50;26.25;;;;;10.16;86.13;101937.09;5081517;28;8880;-57
2021/12/16 11:18:14;;;;;;;;;25.25;22.00;;;;;10.15;86.27;101937.16;5099716;28;8873;-57
2021/12/16 11:20:42;;;;;;;;;32.50;30.00;;;;;10.15;86.02;101935.38;5099446;28;8842;-57
2021/12/16 11:23:10;;;;;;;;;32.75;27.50;;;;;10.15;86.09;101930.06;5097077;28;8844;-57
2021/12/16 11:25:38;;;;;;;;;30.50;29.00;;;;;10.14;85.56;101935.44;5096169;28;8855;-57
2021/12/16 11:28:05;;;;;;;;;19.50;16.50;;;;;10.14;86.00;101931.00;5101273;28;8878;-57
2021/12/16 11:30:33;;;;;;;;;28.75;24.00;;;;;10.14;86.01;101933.66;5098913;28;8858;-57
2021/12/16 11:33:01;;;;;;;;;19.00;14.50;;;;;10.14;86.28;101927.44;5099641;28;9252;-57
2021/12/16 11:35:29;;;;;;;;;30.00;21.75;;;;;10.13;86.40;101931.06;5098484;28;9157;-57
2021/12/16 11:37:57;;;;;;;;;25.00;22.50;;;;;10.15;86.25;101923.84;5097528;28;9583;-57
2021/12/16 11:40:25;;;;;;;;;27.75;26.50;;;;;10.16;85.84;101921.13;5098467;28;8912;-57
2021/12/16 11:42:52;;;;;;;;;29.00;25.50;;;;;10.20;86.21;101928.06;5095494;28;8863;-57
2021/12/16 11:45:20;;;;;;;;;35.00;32.00;;;;;10.20;86.31;101928.06;5098020;28;8866;-57
2021/12/16 11:47:55;;;;;;;;;36.50;25.50;;;;;10.22;86.08;101927.94;5094784;28;8863;-57
2021/12/16 11:50:23;;;;;;;;;26.75;24.25;;;;;10.24;86.04;101923.44;5094887;28;9112;-57
2021/12/16 11:52:50;;;;;;;;;29.50;27.50;;;;;10.26;85.84;101921.56;5094866;28;8855;-57
2021/12/16 11:55:19;;;;;;;;;24.50;23.25;;;;;10.28;86.19;101925.88;5095417;28;9128;-57
2021/12/16 11:57:47;;;;;;;;;30.00;24.75;;;;;10.29;85.57;101924.94;5100159;28;9006;-57
2021/12/16 12:00:15;;;;;;;;;27.50;22.25;;;;;10.31;85.50;101928.41;5097557;28;8839;-57
2021/12/16 12:02:43;;;;;;;;;18.75;15.00;;;;;10.31;86.10;101925.72;5099245;28;8859;-57
2021/12/16 12:05:11;;;;;;;;;26.00;23.50;;;;;10.32;85.95;101931.94;5099184;28;9275;-57
2021/12/16 12:07:38;;;;;;;;;31.00;26.00;;;;;10.31;86.39;101923.06;5099450;28;8851;-57
2021/12/16 12:10:06;;;;;;;;;31.25;23.50;;;;;10.33;85.91;101933.66;5096353;28;8855;-57
2021/12/16 12:12:34;;;;;;;;;22.00;20.75;;;;;10.34;85.69;101932.72;5094474;28;8873;-57
2021/12/16 12:15:02;;;;;;;;;33.25;29.50;;;;;10.34;85.78;101932.72;5094362;28;8835;-57
2021/12/16 12:17:30;;;;;;;;;23.50;21.25;;;;;10.34;85.75;101933.59;5098958;28;8847;-57
2021/12/16 12:19:57;;;;;;;;;26.25;24.50;;;;;10.35;86.01;101940.66;5101916;28;8846;-57
2021/12/16 12:22:25;;;;;;;;;23.00;20.50;;;;;10.36;85.57;101934.38;5099179;28;8820;-57
2021/12/16 12:24:53;;;;;;;;;34.75;30.25;;;;;10.38;86.33;101947.59;5098809;28;8974;-57
2021/12/16 12:27:21;;;;;;;;;19.75;14.50;;;;;10.39;86.29;101944.88;5101080;28;8848;-57
2021/12/16 12:29:49;;;;;;;;;29.50;20.50;;;;;10.40;85.55;101946.59;5098250;28;8844;-57
2021/12/16 12:32:18;;;;;;;;;21.00;18.00;;;;;10.42;85.97;101944.75;5100369;28;8869;-57
2021/12/16 12:34:45;;;;;;;;;15.75;14.50;;;;;10.42;85.66;101943.88;5098876;28;9137;-57
2021/12/16 12:37:13;;;;;;;;;27.00;19.00;;;;;10.42;85.69;101941.22;5100875;28;9244;-57
2021/12/16 12:39:42;;;;;;;;;28.50;27.00;;;;;10.45;85.74;101949.03;5099112;28;9497;-57
2021/12/16 12:42:10;;;;;;;;;25.25;21.00;;;;;10.47;85.68;101942.72;5099552;28;9729;-57
2021/12/16 12:44:38;;;;;;;;;28.75;22.25;;;;;10.48;85.96;101939.13;5101047;28;9547;-57
2021/12/16 12:47:06;;;;;;;;;25.75;22.00;;;;;10.50;85.71;101947.03;5101265;28;8847;-57
2021/12/16 12:49:34;;;;;;;;;26.50;24.00;;;;;10.50;85.94;101939.94;5097188;28;8879;-57
2021/12/16 12:52:01;;;;;;;;;27.00;16.00;;;;;10.50;85.82;101947.03;5098466;28;9510;-57
2021/12/16 12:54:29;;;;;;;;;24.75;20.25;;;;;10.50;85.61;101942.59;5101027;28;9120;-58
2021/12/16 12:56:57;;;;;;;;;36.00;31.25;;;;;10.49;85.53;101940.88;5100294;28;8839;-57
2021/12/16 12:59:24;;;;;;;;;24.00;24.00;;;;;10.49;85.56;101938.22;5095304;28;8855;-57
2021/12/16 13:01:52;;;;;;;;;29.00;23.25;;;;;10.51;85.77;101939.00;5098775;28;8918;-57
2021/12/16 13:04:20;;;;;;;;;20.00;15.00;;;;;10.52;85.75;101947.81;5097421;28;9237;-57
2021/12/16 13:06:48;;;;;;;;;28.50;23.00;;;;;10.53;85.57;101941.56;5095552;28;8863;-57
2021/12/16 13:09:16;;;;;;;;;29.75;24.75;;;;;10.52;85.96;101939.84;5097445;28;8910;-57
2021/12/16 13:11:43;;;;;;;;;21.25;19.25;;;;;10.53;85.50;101931.78;5099667;28;9166;-57
2021/12/16 13:14:18;;;;;;;;;24.25;19.00;;;;;10.53;85.78;101931.78;5097911;28;8848;-57
2021/12/16 13:17:21;;;;;;;;;26.50;21.75;;;;;10.55;85.85;101935.22;5100449;28;8966;-57
2021/12/16 13:25:57;;;;;;;;;29.25;28.25;;;;;10.58;85.42;101937.75;5101271;28;9131;-57